Uchinoura, Japan

5:26 AM JST on April 29, 2015 (GMT +0900)
Kanoya | | Change Station
CLOSE
Current Station
Airport
Location: Kanoya AB,
Elevation: 223 ft
Nearby Weather Stations

Elev 223 ft 31.37 °N, 130.84 °E | Updated 9 minutes ago

Mostly Cloudy
Mostly Cloudy
61 °F
Feels Like 61 °F
N
7
Wind Variable Wind from ESE

Today
High -- | Low -- °F
--% Chance of Precip.
Yesterday
High -- | Low -- °F
Precip. -- in
5:33 AM 6:53 PM
Waxing Gibbous, 76% visible
Pressure 29.89 in
Visibility 6.2 miles
Clouds Few 500 ft
Mostly Cloudy 1000 ft
Mostly Cloudy 7000 ft
Dew Point 59 °F
Humidity 94%
Rainfall 0.00 in
Snow Depth Not available.
UV 0 out of 12
Pollen Not available.
Air Quality Not available.
Flu Activity Not available.
SPECI RJFY 282017Z 11006KT 9999 FEW005 BKN010 BKN070 16/15 Q1012 RMK 1ST005 5ST010 7AC070 A2990

More Conditions Fewer Conditions

Pressure 29.89 in
Visibility 6.2 miles
Clouds Few 500 ft
Mostly Cloudy 1000 ft
Mostly Cloudy 7000 ft
Dew Point 59 °F
Humidity 94%
Rainfall 0.00 in
Snow Depth Not available.
UV 0 out of 12
Pollen Not available.
Air Quality Not available.
Flu Activity Not available.
SPECI RJFY 282017Z 11006KT 9999 FEW005 BKN010 BKN070 16/15 Q1012 RMK 1ST005 5ST010 7AC070 A2990

More Conditions Fewer Conditions

10-Day Weather Forecast

Almanac

Astronomy

Apr. 29, 2015 Rise Set
Actual Time
Civil Twilight
Nautical Twilight
Astronomical Twilight
Moon
Length of Visible Light
Length of Day
Tomorrow will be .
, % of the Moon is Illuminated

Today's Extremes

Country Highs Country Lows

Community

WunderPhotos

Upload Photos

1,817,751 photos uploaded!

WunderBlogs® & News

Nearby

Air Quality

  Air Quality AQ Index Pollutant
Not available.

Snow Depth

Station Depth Elevation

Earthquake Activity

City Distance Mag. Time & Date
Minimum magnitude displayed is 2.5.

Coastal Water Temperatures

Place Temperature

Stations

Nearby Weather Stations

Station Location Temp. Windchill Dew Point Humidity Wind Precip. Elev Updated Type